Time;durP1;ratioP1;P1;durP2;ratioP2;P2;SDS_P1;SDS_P2;PMS_P1;PMS_P2;Temp;Humidity;BMP_temperature;BMP_pressure;BME280_temperature;BME280_humidity;BME280_pressure;Samples;Min_cycle;Max_cycle;Signal;HPM_P1;HPM_P2
2024/03/27 00:00:47;;;;;;;0.82;0.82;;;;;;;-139.19;100.00;56970.53;5030659;28;20037;-62
2024/03/27 00:03:12;;;;;;;0.85;0.65;;;;;;;-139.19;100.00;56970.53;5043512;28;20032;-63
2024/03/27 00:05:38;;;;;;;1.20;1.02;;;;;;;-139.19;100.00;56970.53;5050954;28;20070;-62
2024/03/27 00:08:03;;;;;;;1.55;1.20;;;;;;;-139.19;100.00;56970.53;5035284;28;20120;-62
2024/03/27 00:10:29;;;;;;;0.63;0.63;;;;;;;-139.19;100.00;56970.53;5035260;28;20113;-62
2024/03/27 00:12:55;;;;;;;0.45;0.45;;;;;;;-139.19;100.00;56970.53;5039271;28;20040;-62
2024/03/27 00:15:23;;;;;;;0.52;0.52;;;;;;;-139.19;100.00;56970.53;5054722;28;20477;-63
2024/03/27 00:17:49;;;;;;;0.45;0.45;;;;;;;-139.19;100.00;56970.53;5044334;28;20037;-62
2024/03/27 00:20:19;;;;;;;1.67;1.27;;;;;;;-139.19;100.00;56970.53;5034982;28;20108;-62
2024/03/27 00:22:47;;;;;;;2.80;0.75;;;;;;;-139.19;100.00;56970.53;5035295;28;20553;-62
2024/03/27 00:25:12;;;;;;;0.65;0.65;;;;;;;-139.19;100.00;56970.53;5034860;28;20037;-62
2024/03/27 00:27:38;;;;;;;0.77;0.77;;;;;;;-139.19;100.00;56970.53;5041402;28;20032;-62
2024/03/27 00:30:05;;;;;;;0.28;0.28;;;;;;;-139.19;100.00;56970.53;5036447;28;20381;-62
2024/03/27 00:32:38;;;;;;;1.80;0.88;;;;;;;-139.19;100.00;56970.53;5047450;28;20057;-62
2024/03/27 00:35:14;;;;;;;0.32;0.32;;;;;;;-139.19;100.00;56970.53;5053879;28;20036;-62
2024/03/27 00:37:44;;;;;;;1.40;1.05;;;;;;;-139.19;100.00;56970.53;5054370;28;20482;-62
2024/03/27 00:40:12;;;;;;;0.57;0.45;;;;;;;-139.19;100.00;56970.53;5041492;28;20107;-62
2024/03/27 00:42:38;;;;;;;0.73;0.68;;;;;;;-139.19;100.00;56970.53;5046263;28;20469;-62
2024/03/27 00:45:04;;;;;;;1.73;1.48;;;;;;;-139.19;100.00;56970.53;5053866;28;20037;-62
2024/03/27 00:47:29;;;;;;;1.13;0.80;;;;;;;-139.19;100.00;56970.53;5045407;28;20029;-62
2024/03/27 00:49:54;;;;;;;0.73;0.73;;;;;;;-139.19;100.00;56970.53;5043353;28;20473;-62
2024/03/27 00:52:20;;;;;;;1.20;1.10;;;;;;;-139.19;100.00;56970.53;5034497;28;20041;-62
2024/03/27 00:54:45;;;;;;;1.35;1.25;;;;;;;-139.19;100.00;56970.53;5034500;28;20029;-62
2024/03/27 00:57:11;;;;;;;3.45;0.73;;;;;;;-139.19;100.00;56970.53;5045614;28;20020;-62
2024/03/27 00:59:36;;;;;;;0.47;0.47;;;;;;;-139.19;100.00;56970.53;5053459;28;20375;-62
2024/03/27 01:02:01;;;;;;;2.20;1.65;;;;;;;-139.19;100.00;56970.53;5036111;28;20395;-62
2024/03/27 01:04:27;;;;;;;0.63;0.63;;;;;;;-139.19;100.00;56970.53;5034316;28;20025;-62
2024/03/27 01:06:52;;;;;;;0.32;0.32;;;;;;;-139.19;100.00;56970.53;5034146;28;20021;-62
2024/03/27 01:09:18;;;;;;;1.83;1.65;;;;;;;-139.19;100.00;56970.53;5052369;28;20130;-62
2024/03/27 01:11:44;;;;;;;1.05;0.43;;;;;;;-139.19;100.00;56970.53;5040382;28;20029;-62
2024/03/27 01:14:10;;;;;;;0.55;0.52;;;;;;;-139.19;100.00;56970.53;5034099;28;20041;-62
2024/03/27 01:16:35;;;;;;;0.40;0.40;;;;;;;-139.19;100.00;56970.53;5052525;28;20500;-62
2024/03/27 01:19:00;;;;;;;0.40;0.40;;;;;;;-139.19;100.00;56970.53;5047578;28;20459;-62
2024/03/27 01:21:26;;;;;;;0.47;0.47;;;;;;;-139.19;100.00;56970.53;5034538;28;20452;-62
2024/03/27 01:23:51;;;;;;;0.55;0.55;;;;;;;-139.19;100.00;56970.53;5053127;28;20520;-62
2024/03/27 01:26:17;;;;;;;0.38;0.38;;;;;;;-139.19;100.00;56970.53;5038454;28;20061;-62
2024/03/27 01:28:42;;;;;;;1.50;1.27;;;;;;;-139.19;100.00;56970.53;5034836;28;20397;-62
2024/03/27 01:31:07;;;;;;;0.57;0.57;;;;;;;-139.19;100.00;56970.53;5053106;28;20031;-62
2024/03/27 01:33:33;;;;;;;0.25;0.25;;;;;;;-139.19;100.00;56970.53;5044229;28;20059;-62
2024/03/27 01:35:58;;;;;;;1.17;1.08;;;;;;;-139.19;100.00;56970.53;5052100;28;20032;-62
2024/03/27 01:38:23;;;;;;;0.70;0.50;;;;;;;-139.19;58.97;56970.53;5036718;28;20025;-62
2024/03/27 01:40:49;;;;;;;1.08;1.02;;;;;;;-139.19;100.00;56970.53;5038871;28;20029;-62
2024/03/27 01:43:14;;;;;;;1.55;1.40;;;;;;;-139.19;100.00;56970.53;5034036;28;20108;-62
2024/03/27 01:45:40;;;;;;;1.25;1.15;;;;;;;-139.19;100.00;56970.53;5052927;28;20028;-62
2024/03/27 01:48:07;;;;;;;0.95;0.88;;;;;;;-139.19;100.00;56970.53;5051840;28;20476;-62
2024/03/27 01:50:34;;;;;;;0.45;0.45;;;;;;;-139.19;0.00;56970.53;5034196;28;20590;-63
2024/03/27 01:53:00;;;;;;;0.57;0.57;;;;;;;-139.19;100.00;56970.53;5033378;28;20061;-62
2024/03/27 01:55:26;;;;;;;1.17;1.08;;;;;;;-139.19;100.00;56970.53;5033721;28;20088;-62
2024/03/27 01:57:52;;;;;;;1.95;1.33;;;;;;;-139.19;100.00;56970.53;5032852;28;20025;-62
2024/03/27 02:00:18;;;;;;;0.22;0.22;;;;;;;-139.19;100.00;56970.53;5034679;28;20108;-62
2024/03/27 02:02:44;;;;;;;1.17;1.08;;;;;;;-139.19;100.00;56970.53;5048369;28;20029;-63
2024/03/27 02:05:10;;;;;;;0.85;0.82;;;;;;;-139.19;100.00;56970.53;5052502;28;20128;-63
2024/03/27 02:07:39;;;;;;;1.35;0.90;;;;;;;-139.19;100.00;56970.53;5052600;28;20504;-62
2024/03/27 02:10:07;;;;;;;3.20;1.13;;;;;;;-139.19;100.00;56970.53;5024839;28;20120;-62
2024/03/27 02:12:33;;;;;;;0.75;0.75;;;;;;;-139.19;100.00;56970.53;5047796;28;20400;-62
2024/03/27 02:15:05;;;;;;;0.50;0.50;;;;;;;-139.19;100.00;56970.53;5044542;28;20025;-62
2024/03/27 02:17:30;;;;;;;0.47;0.47;;;;;;;-139.19;100.00;56970.53;5052473;28;20449;-62
2024/03/27 02:19:55;;;;;;;0.35;0.35;;;;;;;-139.19;100.00;56970.53;5052435;28;20108;-62
2024/03/27 02:22:24;;;;;;;2.17;1.33;;;;;;;-139.19;100.00;56970.53;5052049;28;20116;-62
2024/03/27 02:25:08;;;;;;;1.85;1.23;;;;;;;-139.19;78.20;74544.34;5050594;28;20029;-62
2024/03/27 02:27:33;;;;;;;0.82;0.80;;;;;;;-139.19;nan;56970.53;5049503;28;20030;-62
2024/03/27 02:29:59;;;;;;;0.65;0.65;;;;;;;12.75;78.20;98227.34;5046994;28;20435;-62
2024/03/27 02:32:24;;;;;;;0.90;0.90;;;;;;;-139.19;78.20;74544.00;5052064;28;20048;-62
2024/03/27 02:34:49;;;;;;;0.85;0.60;;;;;;;-139.19;78.20;74720.03;5052294;28;20048;-62
2024/03/27 02:37:15;;;;;;;1.30;1.20;;;;;;;-139.19;78.44;74544.00;5052330;28;20033;-62
2024/03/27 02:39:40;;;;;;;0.77;0.73;;;;;;;-139.19;100.00;56970.53;5042698;28;20041;-62
2024/03/27 02:42:05;;;;;;;1.58;0.80;;;;;;;12.75;78.20;98227.34;5037230;28;20028;-62
2024/03/27 02:44:30;;;;;;;1.08;1.08;;;;;;;12.75;78.20;98227.34;5052184;28;20392;-62
2024/03/27 02:46:56;;;;;;;0.50;0.50;;;;;;;12.75;78.20;98227.34;5051770;28;20373;-62
2024/03/27 02:49:21;;;;;;;0.70;0.70;;;;;;;6.79;100.00;95452.22;5039321;28;20028;-62
2024/03/27 02:51:47;;;;;;;0.43;0.43;;;;;;;6.79;100.00;95452.22;5033255;28;20045;-62
2024/03/27 02:54:12;;;;;;;9.63;1.75;;;;;;;6.74;100.00;95469.91;5032760;28;20075;-62
2024/03/27 02:56:37;;;;;;;0.68;0.68;;;;;;;6.80;100.00;95464.34;5033941;28;20045;-62
2024/03/27 02:59:03;;;;;;;1.08;1.05;;;;;;;6.74;100.00;95456.03;5032741;28;20508;-62
2024/03/27 03:01:29;;;;;;;0.20;0.20;;;;;;;6.81;100.00;95445.16;5032932;28;20572;-62
2024/03/27 03:03:54;;;;;;;0.70;0.70;;;;;;;6.86;100.00;95427.44;5032516;28;20104;-62
2024/03/27 03:06:20;;;;;;;0.40;0.40;;;;;;;6.97;100.00;95419.00;5032699;28;20033;-62
2024/03/27 03:08:46;;;;;;;0.52;0.52;;;;;;;7.09;100.00;95408.66;5051982;28;20515;-62
2024/03/27 03:11:11;;;;;;;2.13;1.27;;;;;;;7.21;100.00;95428.09;5054480;28;20029;-62
2024/03/27 03:13:36;;;;;;;5.38;3.63;;;;;;;7.22;100.00;95441.06;5046981;28;20037;-64
2024/03/27 03:16:02;;;;;;;1.20;1.15;;;;;;;7.28;100.00;95430.22;5036300;28;20036;-64
2024/03/27 03:18:28;;;;;;;1.20;0.52;;;;;;;7.28;100.00;95430.22;5036241;28;20037;-64
2024/03/27 03:21:04;;;;;;;0.10;0.10;;;;;;;7.28;100.00;95430.22;5045021;28;20096;-64
2024/03/27 03:23:30;;;;;;;0.65;0.65;;;;;;;7.28;100.00;95430.22;5055497;28;20594;-64
2024/03/27 03:25:55;;;;;;;1.40;1.30;;;;;;;7.28;100.00;95430.22;5038888;28;20025;-64
2024/03/27 03:28:20;;;;;;;0.55;0.40;;;;;;;7.28;100.00;95430.22;5038830;28;20511;-64
2024/03/27 03:30:46;;;;;;;2.22;1.55;;;;;;;7.28;100.00;95430.22;5055432;28;20043;-64
2024/03/27 03:33:12;;;;;;;0.28;0.28;;;;;;;7.28;100.00;95430.22;5055286;28;20048;-64
2024/03/27 03:35:37;;;;;;;0.38;0.38;;;;;;;7.28;100.00;95430.22;5055585;28;20776;-64
2024/03/27 03:38:03;;;;;;;1.90;1.48;;;;;;;7.28;100.00;95430.22;5043128;28;20061;-64
2024/03/27 03:40:46;;;;;;;1.08;0.98;;;;;;;7.28;100.00;95430.22;5051664;28;20036;-64
2024/03/27 03:43:12;;;;;;;0.60;0.60;;;;;;;-139.19;100.00;56970.53;5055246;28;20120;-64
2024/03/27 03:45:37;;;;;;;0.60;0.60;;;;;;;-139.19;100.00;56970.53;5055168;28;20422;-64
2024/03/27 03:48:02;;;;;;;1.05;0.85;;;;;;;-139.19;100.00;56970.53;5054743;28;20564;-64
2024/03/27 03:50:28;;;;;;;0.80;0.80;;;;;;;-139.19;100.00;56970.53;5058203;28;20109;-64
2024/03/27 03:52:53;;;;;;;1.10;1.00;;;;;;;-139.19;100.00;56970.53;5075602;28;20056;-64
2024/03/27 03:55:18;;;;;;;5.88;2.88;;;;;;;-139.19;100.00;56970.53;5061286;28;20107;-64
2024/03/27 03:57:44;;;;;;;0.28;0.28;;;;;;;-139.19;100.00;56970.53;5055499;28;20108;-64
2024/03/27 04:00:15;;;;;;;0.52;0.52;;;;;;;-139.19;100.00;56970.53;5055460;28;20028;-64
2024/03/27 04:02:40;;;;;;;3.20;0.98;;;;;;;-139.19;100.00;56970.53;5055638;28;20575;-64
2024/03/27 04:05:07;;;;;;;2.55;1.42;;;;;;;-139.19;100.00;56970.53;5055264;28;20148;-64
2024/03/27 04:07:33;;;;;;;2.45;2.25;;;;;;;-139.19;100.00;56970.53;5055469;28;20228;-64
2024/03/27 04:09:58;;;;;;;0.47;0.47;;;;;;;-139.19;100.00;56970.53;5068646;28;20143;-64
2024/03/27 04:12:23;;;;;;;0.38;0.38;;;;;;;-139.19;100.00;56970.53;5074321;28;20033;-64
2024/03/27 04:14:51;;;;;;;0.52;0.52;;;;;;;-139.19;100.00;56970.53;5074582;28;20028;-64
2024/03/27 04:17:17;;;;;;;1.73;1.63;;;;;;;-139.19;100.00;56970.53;5074789;28;20090;-64
2024/03/27 04:19:42;;;;;;;1.30;1.23;;;;;;;-139.19;100.00;56970.53;5074256;28;20106;-64
2024/03/27 04:22:07;;;;;;;0.50;0.50;;;;;;;-139.19;100.00;56970.53;5073694;28;20435;-64
2024/03/27 04:24:33;;;;;;;1.60;0.98;;;;;;;-139.19;100.00;56970.53;5066081;28;20028;-64
2024/03/27 04:26:58;;;;;;;0.50;0.50;;;;;;;-139.19;100.00;56970.53;5074108;28;20063;-64
2024/03/27 04:29:24;;;;;;;1.40;1.23;;;;;;;-139.19;100.00;56970.53;5074605;28;20435;-64
2024/03/27 04:31:49;;;;;;;0.47;0.47;;;;;;;-139.19;100.00;56970.53;5074494;28;20032;-64
2024/03/27 04:34:15;;;;;;;2.70;1.35;;;;;;;-139.19;100.00;56970.53;5073902;28;20029;-64
2024/03/27 04:36:40;;;;;;;2.17;1.52;;;;;;;-139.19;100.00;56970.53;5074404;28;20472;-64
2024/03/27 04:39:06;;;;;;;0.90;0.70;;;;;;;-139.19;100.00;56970.53;5057456;28;20092;-64
2024/03/27 04:41:31;;;;;;;1.52;1.42;;;;;;;-139.19;100.00;56970.53;5054607;28;20358;-65
2024/03/27 04:43:57;;;;;;;0.85;0.63;;;;;;;-139.19;100.00;56970.53;5059333;28;20035;-64
2024/03/27 04:46:23;;;;;;;1.00;0.95;;;;;;;-139.19;100.00;56970.53;5073905;28;20515;-64
2024/03/27 04:48:48;;;;;;;0.45;0.45;;;;;;;-139.19;100.00;56970.53;5073596;28;20178;-64
2024/03/27 04:51:14;;;;;;;1.05;1.00;;;;;;;-139.19;100.00;56970.53;5073604;28;20507;-64
2024/03/27 04:53:39;;;;;;;1.00;0.40;;;;;;;-139.19;100.00;56970.53;5057114;28;20033;-64
2024/03/27 04:56:04;;;;;;;0.63;0.63;;;;;;;-139.19;100.00;56970.53;5073519;28;20043;-64
2024/03/27 04:58:30;;;;;;;1.77;1.00;;;;;;;-139.19;100.00;56970.53;5073735;28;20024;-64
2024/03/27 05:00:55;;;;;;;0.30;0.30;;;;;;;-139.19;100.00;56970.53;5073030;28;20502;-64
2024/03/27 05:03:20;;;;;;;1.58;1.40;;;;;;;-139.19;100.00;56970.53;5073684;28;20032;-64
2024/03/27 05:05:46;;;;;;;0.70;0.52;;;;;;;-139.19;100.00;56970.53;5073534;28;20403;-64
2024/03/27 05:08:14;;;;;;;0.43;0.43;;;;;;;-139.19;100.00;56970.53;5055144;28;20028;-64
2024/03/27 05:10:39;;;;;;;0.20;0.20;;;;;;;-139.19;100.00;56970.53;5054335;28;20531;-64
2024/03/27 05:13:05;;;;;;;0.50;0.50;;;;;;;-139.19;100.00;56970.53;5053975;28;20025;-64
2024/03/27 05:15:30;;;;;;;0.60;0.60;;;;;;;-139.19;100.00;56970.53;5054177;28;20025;-64
2024/03/27 05:17:56;;;;;;;0.40;0.40;;;;;;;-139.19;100.00;56970.53;5054230;28;20055;-64
2024/03/27 05:20:21;;;;;;;5.40;1.30;;;;;;;-139.19;100.00;56970.53;5054237;28;20061;-64
2024/03/27 05:22:47;;;;;;;1.20;0.98;;;;;;;-139.19;100.00;56970.53;5073571;28;20024;-65
2024/03/27 05:25:13;;;;;;;0.52;0.52;;;;;;;-139.19;100.00;56970.53;5071658;28;20059;-64
2024/03/27 05:27:38;;;;;;;0.63;0.38;;;;;;;-139.19;100.00;56970.53;5072961;28;20036;-64
2024/03/27 05:30:04;;;;;;;2.40;1.92;;;;;;;-139.19;100.00;56970.53;5056782;28;20020;-64
2024/03/27 05:32:30;;;;;;;0.30;0.30;;;;;;;-139.19;100.00;56970.53;5072989;28;20032;-64
2024/03/27 05:34:55;;;;;;;1.45;0.77;;;;;;;-139.19;100.00;56970.53;5073054;28;20028;-63
2024/03/27 05:37:21;;;;;;;0.65;0.50;;;;;;;-139.19;100.00;56970.53;5054001;28;20063;-63
2024/03/27 05:39:46;;;;;;;0.82;0.80;;;;;;;-139.19;100.00;56970.53;5046839;28;20075;-63
2024/03/27 05:42:12;;;;;;;0.82;0.82;;;;;;;-139.19;100.00;56970.53;5048516;28;20116;-63
2024/03/27 05:44:37;;;;;;;2.13;1.50;;;;;;;-139.19;100.00;56970.53;5046227;28;20091;-63
2024/03/27 05:47:03;;;;;;;3.40;1.63;;;;;;;-139.19;100.00;56970.53;5049917;28;20041;-63
2024/03/27 05:49:29;;;;;;;0.20;0.20;;;;;;;-139.19;100.00;56970.53;5051208;28;20028;-63
2024/03/27 05:51:54;;;;;;;0.50;0.47;;;;;;;-139.19;100.00;56970.53;5038741;28;20535;-63
2024/03/27 05:54:20;;;;;;;2.13;1.75;;;;;;;-139.19;100.00;56970.53;5027497;28;20112;-63
2024/03/27 05:56:45;;;;;;;0.68;0.55;;;;;;;-139.19;100.00;56970.53;5032959;28;20056;-63
2024/03/27 05:59:10;;;;;;;0.35;0.35;;;;;;;-139.19;100.00;56970.53;5030801;28;20141;-63
2024/03/27 06:01:36;;;;;;;0.57;0.57;;;;;;;-139.19;100.00;56970.53;5026447;28;20076;-63
2024/03/27 06:04:01;;;;;;;0.22;0.22;;;;;;;-139.19;100.00;56970.53;5030523;28;20457;-63
2024/03/27 06:06:27;;;;;;;0.20;0.20;;;;;;;-139.19;100.00;56970.53;5030224;28;20492;-63
2024/03/27 06:08:52;;;;;;;0.00;0.00;;;;;;;-139.19;100.00;56970.53;5026867;28;20474;-63
2024/03/27 06:11:18;;;;;;;2.05;0.85;;;;;;;-139.19;100.00;56970.53;5032130;28;20037;-63
2024/03/27 06:13:44;;;;;;;0.25;0.25;;;;;;;-139.19;100.00;56970.53;5025012;28;20025;-63
2024/03/27 06:16:09;;;;;;;0.17;0.17;;;;;;;-139.19;100.00;56970.53;5032678;28;20052;-63
2024/03/27 06:18:34;;;;;;;0.28;0.28;;;;;;;-139.19;100.00;56970.53;5023778;28;20482;-63
2024/03/27 06:21:00;;;;;;;0.75;0.63;;;;;;;-139.19;100.00;56970.53;5021586;28;20026;-63
2024/03/27 06:23:25;;;;;;;0.85;0.65;;;;;;;-139.19;100.00;56970.53;5028668;28;20029;-63
2024/03/27 06:25:58;;;;;;;0.45;0.45;;;;;;;-139.19;100.00;56970.53;5031601;28;20052;-63
2024/03/27 06:28:24;;;;;;;0.28;0.28;;;;;;;-139.19;100.00;56970.53;5038261;28;20055;-63
2024/03/27 06:30:55;;;;;;;0.40;0.40;;;;;;;-139.19;100.00;56970.53;5021466;28;20029;-63
2024/03/27 06:33:21;;;;;;;0.10;0.10;;;;;;;-139.19;100.00;56970.53;5017910;28;20470;-63
2024/03/27 06:35:46;;;;;;;0.10;0.10;;;;;;;-139.19;100.00;56970.53;5025780;28;20262;-75
2024/03/27 06:38:12;;;;;;;0.20;0.20;;;;;;;-139.19;100.00;56970.53;5028996;28;20036;-63
2024/03/27 06:40:37;;;;;;;0.20;0.20;;;;;;;-139.19;100.00;56970.53;5013203;28;20101;-63
2024/03/27 06:43:02;;;;;;;0.00;0.00;;;;;;;-139.19;100.00;56970.53;5021077;28;20030;-64
2024/03/27 06:45:28;;;;;;;0.05;0.05;;;;;;;-139.19;100.00;56970.53;5030012;28;20026;-63
2024/03/27 06:47:53;;;;;;;0.45;0.40;;;;;;;-139.19;100.00;56970.53;5035798;28;20033;-63
2024/03/27 06:50:18;;;;;;;0.17;0.17;;;;;;;-139.19;100.00;56970.53;5018816;28;20053;-63
2024/03/27 06:52:46;;;;;;;0.17;0.17;;;;;;;-139.19;100.00;56970.53;5025403;28;20093;-63
2024/03/27 06:55:11;;;;;;;0.28;0.28;;;;;;;-139.19;100.00;56970.53;5025711;28;20500;-63
2024/03/27 06:57:36;;;;;;;0.52;0.52;;;;;;;-139.19;100.00;56970.53;5027354;28;20026;-63
2024/03/27 07:00:05;;;;;;;1.27;0.32;;;;;;;-139.19;100.00;56970.53;5016549;28;20026;-63
2024/03/27 07:02:30;;;;;;;0.30;0.30;;;;;;;-139.19;100.00;56970.53;5024640;28;20469;-63
2024/03/27 07:04:55;;;;;;;0.50;0.50;;;;;;;-139.19;100.00;56970.53;5034295;28;20029;-63
2024/03/27 07:07:21;;;;;;;2.17;0.63;;;;;;;-139.19;100.00;56970.53;5036214;28;20028;-63
2024/03/27 07:09:46;;;;;;;0.35;0.32;;;;;;;-139.19;100.00;56970.53;5035394;28;20040;-63
2024/03/27 07:12:11;;;;;;;0.45;0.17;;;;;;;-139.19;100.00;56970.53;5034101;28;20029;-63
2024/03/27 07:14:48;;;;;;;0.13;0.13;;;;;;;-139.19;100.00;56970.53;5033998;28;20100;-63
2024/03/27 07:17:13;;;;;;;0.03;0.03;;;;;;;-139.19;100.00;56970.53;5019735;28;20037;-63
2024/03/27 07:19:38;;;;;;;0.22;0.17;;;;;;;-139.19;100.00;56970.53;5027827;28;20091;-63
2024/03/27 07:22:04;;;;;;;0.15;0.15;;;;;;;-139.19;100.00;56970.53;5035416;28;20037;-63
2024/03/27 07:24:29;;;;;;;0.10;0.10;;;;;;;-139.19;100.00;56970.53;5034864;28;20378;-63
2024/03/27 07:26:57;;;;;;;0.10;0.10;;;;;;;-139.19;100.00;56970.53;5035612;28;20029;-63
2024/03/27 07:29:23;;;;;;;0.13;0.13;;;;;;;-139.19;100.00;56970.53;5026255;28;20381;-63
2024/03/27 07:31:48;;;;;;;0.00;0.00;;;;;;;-139.19;100.00;56970.53;5030701;28;20021;-66
2024/03/27 07:34:15;;;;;;;0.10;0.10;;;;;;;-139.19;100.00;56970.53;5028513;28;20021;-66
2024/03/27 07:36:40;;;;;;;0.00;0.00;;;;;;;-139.19;100.00;56970.53;5033318;28;20388;-66
2024/03/27 07:39:06;;;;;;;0.00;0.00;;;;;;;-139.19;100.00;56970.53;5031274;28;20112;-66
2024/03/27 07:41:31;;;;;;;0.10;0.10;;;;;;;-139.19;100.00;56970.53;5031633;28;20084;-66
2024/03/27 07:43:57;;;;;;;0.30;0.30;;;;;;;-139.19;100.00;56970.53;5019531;28;20389;-66
2024/03/27 07:46:22;;;;;;;0.10;0.10;;;;;;;-139.19;100.00;56970.53;5027697;28;20025;-66
2024/03/27 07:48:49;;;;;;;0.40;0.25;;;;;;;-139.19;100.00;56970.53;5039547;28;20025;-66
2024/03/27 07:51:14;;;;;;;0.10;0.10;;;;;;;-139.19;100.00;56970.53;5037956;28;20488;-63
2024/03/27 07:53:40;;;;;;;0.10;0.10;;;;;;;-139.19;100.00;56970.53;5048928;28;20035;-66
2024/03/27 07:56:05;;;;;;;0.10;0.10;;;;;;;-139.19;100.00;56970.53;5047382;28;20033;-66
2024/03/27 07:58:30;;;;;;;0.50;0.25;;;;;;;-139.19;100.00;56970.53;5054071;28;20025;-66
2024/03/27 08:00:56;;;;;;;0.10;0.10;;;;;;;-139.19;100.00;56970.53;5046535;28;20021;-66
2024/03/27 08:03:22;;;;;;;0.10;0.10;;;;;;;-139.19;100.00;56970.53;5049683;28;20024;-66
2024/03/27 08:05:48;;;;;;;0.20;0.20;;;;;;;-139.19;100.00;56970.53;5041607;28;20025;-66
2024/03/27 08:08:13;;;;;;;0.08;0.08;;;;;;;-139.19;100.00;56970.53;5046456;28;20025;-66
2024/03/27 08:10:38;;;;;;;0.20;0.20;;;;;;;-139.19;100.00;56970.53;5040426;28;20389;-66
2024/03/27 08:13:11;;;;;;;0.30;0.30;;;;;;;-139.19;100.00;56970.53;5046673;28;20167;-65
2024/03/27 08:15:39;;;;;;;0.38;0.38;;;;;;;-139.19;100.00;56970.53;5054778;28;20041;-65
2024/03/27 08:18:05;;;;;;;0.20;0.20;;;;;;;-139.19;100.00;56970.53;5054796;28;20024;-65
2024/03/27 08:20:30;;;;;;;0.17;0.17;;;;;;;-139.19;100.00;56970.53;5054877;28;20499;-71
2024/03/27 08:22:55;;;;;;;0.08;0.08;;;;;;;-139.19;100.00;56970.53;5054123;28;20025;-64
2024/03/27 08:25:21;;;;;;;0.20;0.20;;;;;;;-139.19;100.00;56970.53;5046392;28;20029;-64
2024/03/27 08:27:46;;;;;;;0.45;0.45;;;;;;;-139.19;100.00;56970.53;5039364;28;20028;-64
2024/03/27 08:30:12;;;;;;;0.10;0.10;;;;;;;-139.19;100.00;56970.53;5054260;28;20037;-64
2024/03/27 08:32:37;;;;;;;0.20;0.20;;;;;;;-139.19;100.00;56970.53;5054293;28;20043;-64
2024/03/27 08:35:03;;;;;;;0.32;0.32;;;;;;;-139.19;100.00;56970.53;5046280;28;20096;-64
2024/03/27 08:37:28;;;;;;;0.40;0.40;;;;;;;-139.19;100.00;56970.53;5053855;28;20033;-64
2024/03/27 08:39:53;;;;;;;0.45;0.45;;;;;;;-139.19;100.00;56970.53;5045305;28;20104;-64
2024/03/27 08:42:19;;;;;;;0.32;0.32;;;;;;;-139.19;100.00;56970.53;5051435;28;20454;-64
2024/03/27 08:44:44;;;;;;;0.75;0.40;;;;;;;-139.19;100.00;56970.53;5074559;28;20379;-64
2024/03/27 08:47:09;;;;;;;0.28;0.28;;;;;;;-139.19;100.00;56970.53;5074993;28;20035;-64
2024/03/27 08:49:35;;;;;;;0.55;0.55;;;;;;;-139.19;100.00;56970.53;5074610;28;20050;-64
2024/03/27 08:52:00;;;;;;;0.90;0.68;;;;;;;-139.19;100.00;56970.53;5074300;28;20048;-64
2024/03/27 08:54:25;;;;;;;0.10;0.10;;;;;;;-139.19;100.00;56970.53;5074538;28;20016;-64
2024/03/27 08:56:51;;;;;;;0.10;0.10;;;;;;;-139.19;100.00;56970.53;5074598;28;20028;-64
2024/03/27 08:59:16;;;;;;;0.32;0.32;;;;;;;-139.19;100.00;56970.53;5074443;28;20021;-64
2024/03/27 09:01:42;;;;;;;0.17;0.17;;;;;;;-139.19;100.00;56970.53;5074371;28;20028;-64
2024/03/27 09:04:07;;;;;;;0.88;0.47;;;;;;;-139.19;100.00;56970.53;5074262;28;20024;-64
2024/03/27 09:06:32;;;;;;;0.10;0.10;;;;;;;-139.19;100.00;56970.53;5073867;28;20036;-64
2024/03/27 09:08:58;;;;;;;0.65;0.65;;;;;;;-139.19;100.00;56970.53;5074212;28;20029;-64
2024/03/27 09:11:23;;;;;;;0.10;0.10;;;;;;;-139.19;100.00;56970.53;5074187;28;20035;-64
2024/03/27 09:13:48;;;;;;;0.10;0.10;;;;;;;-139.19;100.00;56970.53;5074150;28;20028;-64
2024/03/27 09:16:14;;;;;;;0.00;0.00;;;;;;;-139.19;100.00;56970.53;5074076;28;20021;-64
2024/03/27 09:18:39;;;;;;;0.13;0.13;;;;;;;-139.19;100.00;56970.53;5074186;28;20032;-74
2024/03/27 09:21:04;;;;;;;0.20;0.20;;;;;;;-139.19;100.00;56970.53;5074061;28;20020;-74
2024/03/27 09:23:32;;;;;;;0.00;0.00;;;;;;;-139.19;100.00;56970.53;5074037;28;20043;-74
2024/03/27 09:26:01;;;;;;;0.10;0.10;;;;;;;-139.19;100.00;56970.53;5073961;28;20495;-74
2024/03/27 09:28:26;;;;;;;0.10;0.10;;;;;;;-139.19;100.00;56970.53;5074037;28;20452;-74
2024/03/27 09:30:53;;;;;;;0.10;0.10;;;;;;;-139.19;100.00;56970.53;5074109;28;20024;-74
2024/03/27 09:33:18;;;;;;;0.15;0.15;;;;;;;-139.19;100.00;56970.53;5073829;28;20024;-74
2024/03/27 09:35:45;;;;;;;0.00;0.00;;;;;;;-139.19;100.00;56970.53;5073877;28;20480;-74
2024/03/27 09:38:11;;;;;;;0.00;0.00;;;;;;;-139.19;100.00;56970.53;5055956;28;20081;-74
2024/03/27 09:40:48;;;;;;;0.20;0.20;;;;;;;-139.19;100.00;56970.53;5073912;28;20028;-74
2024/03/27 09:43:15;;;;;;;0.00;0.00;;;;;;;-139.19;100.00;56970.53;5073920;28;20063;-74
2024/03/27 09:45:46;;;;;;;0.08;0.08;;;;;;;-139.19;100.00;56970.53;5073708;28;20028;-74
2024/03/27 09:48:13;;;;;;;0.28;0.28;;;;;;;-139.19;100.00;56970.53;5073958;28;20427;-74
2024/03/27 09:50:46;;;;;;;0.22;0.22;;;;;;;-139.19;100.00;56970.53;5073458;28;20094;-74
2024/03/27 09:53:20;;;;;;;0.10;0.10;;;;;;;-139.19;100.00;56970.53;5073389;28;20083;-74
2024/03/27 09:55:46;;;;;;;0.00;0.00;;;;;;;-139.19;100.00;56970.53;5073664;28;20059;-74
2024/03/27 09:58:14;;;;;;;0.38;0.25;;;;;;;-139.19;100.00;56970.53;5073468;28;20028;-74
2024/03/27 10:00:39;;;;;;;0.30;0.30;;;;;;;-139.19;100.00;56970.53;5073597;28;20058;-73
2024/03/27 10:03:05;;;;;;;0.30;0.30;;;;;;;-139.19;100.00;56970.53;5073454;28;20064;-75
2024/03/27 10:05:35;;;;;;;0.10;0.10;;;;;;;-139.19;100.00;56970.53;5073230;28;20048;-75
2024/03/27 10:08:03;;;;;;;0.20;0.20;;;;;;;-139.19;100.00;56970.53;5073356;28;20032;-74
2024/03/27 10:10:29;;;;;;;4.65;2.08;;;;;;;-139.19;100.00;56970.53;5073231;28;20054;-75
2024/03/27 10:12:54;;;;;;;3.72;1.55;;;;;;;-139.19;100.00;56970.53;5055316;28;20031;-75
2024/03/27 10:15:21;;;;;;;0.43;0.43;;;;;;;-139.19;100.00;56970.53;5073431;28;20028;-77
2024/03/27 10:17:47;;;;;;;0.50;0.50;;;;;;;-139.19;100.00;56970.53;5073174;28;20028;-79
2024/03/27 10:20:12;;;;;;;0.85;0.80;;;;;;;-139.19;100.00;56970.53;5072457;28;20024;-78
2024/03/27 10:22:39;;;;;;;0.10;0.10;;;;;;;-139.19;100.00;56970.53;5055155;28;20480;-78
2024/03/27 10:25:05;;;;;;;0.13;0.13;;;;;;;-139.19;100.00;56970.53;5073068;28;20412;-79
2024/03/27 10:27:31;;;;;;;0.00;0.00;;;;;;;-139.19;100.00;56970.53;5073181;28;20031;-78
2024/03/27 10:29:57;;;;;;;26.15;0.57;;;;;;;-139.19;100.00;56970.53;5073041;28;20031;-65
2024/03/27 10:32:23;;;;;;;0.55;0.52;;;;;;;-139.19;100.00;56970.53;5073043;28;20095;-75
2024/03/27 10:34:49;;;;;;;0.25;0.25;;;;;;;-139.19;100.00;56970.53;5073074;28;20077;-75
2024/03/27 10:37:15;;;;;;;0.10;0.10;;;;;;;-139.19;100.00;56970.53;5062821;28;20031;-75
2024/03/27 10:39:51;;;;;;;0.10;0.10;;;;;;;-139.19;100.00;56970.53;5052104;28;20052;-75
2024/03/27 10:42:22;;;;;;;0.10;0.10;;;;;;;-139.19;100.00;56970.53;5055413;28;20044;-75
2024/03/27 10:44:49;;;;;;;0.10;0.10;;;;;;;-139.19;100.00;56970.53;5056868;28;20029;-75
2024/03/27 10:47:18;;;;;;;0.05;0.05;;;;;;;-139.19;100.00;56970.53;5052985;28;20396;-75
2024/03/27 10:49:45;;;;;;;0.30;0.30;;;;;;;-139.19;100.00;56970.53;5052701;28;20037;-75
2024/03/27 10:52:19;;;;;;;0.00;0.00;;;;;;;-139.19;100.00;56970.53;5052452;28;20061;-75
2024/03/27 10:54:46;;;;;;;0.20;0.20;;;;;;;-139.19;100.00;56970.53;5052361;28;20485;-75
2024/03/27 10:57:13;;;;;;;0.38;0.35;;;;;;;-139.19;100.00;56970.53;5052871;28;20108;-66
2024/03/27 10:59:42;;;;;;;0.10;0.10;;;;;;;-139.19;100.00;56970.53;5052804;28;20025;-63
2024/03/27 11:02:08;;;;;;;0.40;0.40;;;;;;;-139.19;100.00;56970.53;5045258;28;20037;-63
2024/03/27 11:04:36;;;;;;;0.20;0.20;;;;;;;-139.19;100.00;56970.53;5058725;28;20416;-63
2024/03/27 11:07:02;;;;;;;0.28;0.28;;;;;;;-139.19;100.00;56970.53;5056150;28;20020;-63